Time;durP1;ratioP1;P1;durP2;ratioP2;P2;SDS_P1;SDS_P2;PMS_P1;PMS_P2;Temp;Humidity;BMP_temperature;BMP_pressure;BME280_temperature;BME280_humidity;BME280_pressure;Samples;Min_cycle;Max_cycle;Signal;HPM_P1;HPM_P2
2022/12/27 00:00:54;;;;;;;7.28;3.22;;;;;;;-7.39;91.78;101755.09;4973505;28;20486;-74
2022/12/27 00:03:19;;;;;;;3.50;3.20;;;;;;;-7.46;92.65;101749.19;4973402;28;20050;-73
2022/12/27 00:05:46;;;;;;;7.70;3.57;;;;;;;-7.63;93.04;101725.31;4973253;28;20038;-73
2022/12/27 00:08:12;;;;;;;5.35;3.08;;;;;;;-7.46;92.35;101763.84;4973060;28;20406;-72
2022/12/27 00:10:39;;;;;;;4.43;3.83;;;;;;;-7.56;92.35;101739.84;4973233;28;20050;-74
2022/12/27 00:13:05;;;;;;;3.83;3.50;;;;;;;-7.57;91.70;101743.31;4956082;28;20039;-72
2022/12/27 00:15:33;;;;;;;3.53;3.27;;;;;;;-7.59;90.71;101752.81;4973464;28;20034;-73
2022/12/27 00:17:58;;;;;;;8.85;3.55;;;;;;;-7.63;91.55;101739.09;4973334;28;20049;-73
2022/12/27 00:20:24;;;;;;;3.37;3.07;;;;;;;-7.71;91.24;101729.75;4973156;28;20027;-73
2022/12/27 00:22:49;;;;;;;4.73;2.87;;;;;;;-7.58;90.51;101736.41;4973282;28;20533;-75
2022/12/27 00:25:15;;;;;;;3.20;2.90;;;;;;;-7.60;90.14;101722.66;4973132;28;20031;-73
2022/12/27 00:27:40;;;;;;;3.43;3.13;;;;;;;-7.56;89.65;101695.84;4956196;28;20034;-74
2022/12/27 00:30:08;;;;;;;2.93;2.73;;;;;;;-7.73;89.11;101667.69;4955649;28;20037;-73
2022/12/27 00:32:34;;;;;;;3.30;3.00;;;;;;;-7.71;89.15;101659.91;4974858;28;20490;-74
2022/12/27 00:34:59;;;;;;;3.53;3.33;;;;;;;-7.64;89.35;101656.34;4976447;28;20047;-74
2022/12/27 00:37:25;;;;;;;4.07;3.70;;;;;;;-7.65;89.50;101664.97;4976332;28;20035;-75
2022/12/27 00:39:51;;;;;;;3.57;3.30;;;;;;;-7.71;89.40;101645.25;4976549;28;20518;-73
2022/12/27 00:42:16;;;;;;;3.20;2.90;;;;;;;-7.70;89.24;101646.97;4976611;28;20042;-73
2022/12/27 00:44:42;;;;;;;4.23;3.83;;;;;;;-7.66;89.81;101642.59;4976614;28;20058;-73
2022/12/27 00:47:08;;;;;;;3.90;3.10;;;;;;;-7.56;89.73;101631.19;4976298;28;20030;-73
2022/12/27 00:49:34;;;;;;;7.18;3.33;;;;;;;-7.46;90.49;101635.34;4976629;28;20046;-73
2022/12/27 00:51:59;;;;;;;3.50;3.20;;;;;;;-7.32;88.73;101623.00;4976508;28;20035;-74
2022/12/27 00:54:25;;;;;;;3.30;2.73;;;;;;;-7.40;89.04;101629.19;4976462;28;20054;-74
2022/12/27 00:56:50;;;;;;;3.67;3.37;;;;;;;-7.39;88.48;101620.56;4976672;28;20070;-74
2022/12/27 00:59:16;;;;;;;2.90;2.70;;;;;;;-7.42;88.49;101605.94;4976349;28;20022;-75
2022/12/27 01:02:06;;;;;;;4.10;3.05;;;;;;;-7.49;89.06;101596.59;4976505;28;20422;-74
2022/12/27 01:04:32;;;;;;;3.20;3.00;;;;;;;-7.48;88.62;101600.03;4975805;28;20068;-73
2022/12/27 01:06:57;;;;;;;2.93;2.73;;;;;;;-7.44;89.58;101606.84;4958520;28;20038;-74
2022/12/27 01:09:23;;;;;;;3.67;3.37;;;;;;;-7.41;89.25;101605.06;4976264;28;20114;-74
2022/12/27 01:11:48;;;;;;;3.77;3.43;;;;;;;-7.35;89.80;101591.16;4976477;28;20031;-73
2022/12/27 01:14:15;;;;;;;4.30;3.33;;;;;;;-7.29;89.81;101566.00;4977423;28;20022;-75
2022/12/27 01:16:41;;;;;;;3.05;2.85;;;;;;;-7.29;89.49;101576.34;4958840;28;20410;-73
2022/12/27 01:19:06;;;;;;;3.60;3.30;;;;;;;-7.26;89.41;101570.25;4976167;28;20147;-73
2022/12/27 01:21:32;;;;;;;4.23;3.90;;;;;;;-7.26;90.43;101560.75;4958945;28;20030;-73
2022/12/27 01:23:58;;;;;;;4.13;3.73;;;;;;;-7.19;89.62;101558.91;4976364;28;20110;-73
2022/12/27 01:26:23;;;;;;;3.80;3.40;;;;;;;-7.30;89.35;101537.56;4976041;28;20034;-74
2022/12/27 01:28:51;;;;;;;4.23;3.53;;;;;;;-7.35;89.86;101537.66;4976030;28;20026;-74
2022/12/27 01:31:20;;;;;;;4.68;4.28;;;;;;;-7.24;90.46;101533.09;4978210;28;20455;-73
2022/12/27 01:33:46;;;;;;;3.63;3.38;;;;;;;-7.11;90.60;101522.50;4991151;28;20031;-74
2022/12/27 01:36:20;;;;;;;4.67;3.67;;;;;;;-7.16;89.80;101522.63;4992013;28;20029;-72
2022/12/27 01:38:47;;;;;;;4.05;3.65;;;;;;;-7.23;90.50;101514.13;4992777;28;20077;-75
2022/12/27 01:44:45;;;;;;;5.38;3.90;;;;;;;-7.20;91.02;101514.06;4955508;28;20127;-73
2022/12/27 01:47:11;;;;;;;4.63;4.15;;;;;;;-7.15;90.66;101505.34;4982249;28;20042;-73
2022/12/27 01:49:42;;;;;;;5.93;4.00;;;;;;;-7.17;90.88;101513.16;4993898;28;20082;-73
2022/12/27 01:52:10;;;;;;;5.75;3.78;;;;;;;-7.19;91.76;101505.41;4983680;28;20446;-72
2022/12/27 01:54:35;;;;;;;4.43;3.83;;;;;;;-7.27;91.79;101471.06;4975263;28;20034;-73
2022/12/27 01:57:02;;;;;;;3.60;3.30;;;;;;;-7.13;91.41;101494.06;4985780;28;20054;-74
2022/12/27 01:59:28;;;;;;;4.05;3.70;;;;;;;-7.19;91.04;101492.47;4981314;28;20114;-74
2022/12/27 02:01:54;;;;;;;5.53;4.23;;;;;;;-7.50;91.01;101452.59;4975169;28;20126;-73
2022/12/27 02:04:25;;;;;;;5.27;3.90;;;;;;;-7.31;91.95;101495.28;4957837;28;20050;-73
2022/12/27 02:06:51;;;;;;;4.95;4.35;;;;;;;-7.30;92.63;101478.03;4975173;28;20077;-74
2022/12/27 02:09:38;;;;;;;4.30;3.90;;;;;;;-7.33;92.60;101480.69;4974792;28;20047;-72
2022/12/27 02:12:07;;;;;;;5.07;4.68;;;;;;;-7.30;92.27;101467.69;4975520;28;20022;-73
2022/12/27 02:14:32;;;;;;;;;;;;;;;-7.21;92.99;101455.41;4975381;28;20035;-74
2022/12/27 02:17:00;;;;;;;8.03;6.17;;;;;;;-7.15;93.15;101456.16;4974832;28;20310;-73
2022/12/27 02:19:40;;;;;;;5.88;5.28;;;;;;;-7.18;92.75;101470.88;4974760;28;20034;-73
2022/12/27 02:22:31;;;;;;;6.32;4.45;;;;;;;-7.23;93.46;101466.66;4974739;28;20129;-74
2022/12/27 02:25:51;;;;;;;5.30;4.80;;;;;;;-7.23;93.62;101467.53;4974532;28;20510;-75
2022/12/27 02:28:36;;;;;;;8.15;5.10;;;;;;;-7.14;93.69;101450.94;4915249;29;20036;-74
2022/12/27 02:31:09;;;;;;;7.97;5.65;;;;;;;-7.11;93.80;101434.50;4984629;28;20543;-72
2022/12/27 02:33:41;;;;;;;7.05;5.75;;;;;;;-7.13;93.97;101428.50;4996794;28;20050;-72
2022/12/27 02:36:11;;;;;;;5.35;4.85;;;;;;;-7.17;94.31;101419.97;4998787;28;20054;-73
2022/12/27 02:38:44;;;;;;;5.25;4.75;;;;;;;-7.13;94.51;101419.00;4983030;28;20050;-74
2022/12/27 02:55:28;;;;;;;5.05;4.63;;;;;;;-6.98;94.56;101368.59;4985315;28;20082;-73
2022/12/27 02:58:42;;;;;;;5.53;4.88;;;;;;;-6.93;94.17;101369.34;4996747;28;20089;-76
2022/12/27 03:04:36;;;;;;;5.15;4.65;;;;;;;-6.87;93.68;101362.28;4974300;28;20030;-73
2022/12/27 03:07:21;;;;;;;4.93;4.03;;;;;;;-6.81;94.25;101347.47;4956396;28;20074;-72
2022/12/27 03:15:59;;;;;;;5.85;4.60;;;;;;;-6.88;94.07;101344.19;4973577;28;20085;-72
2022/12/27 03:18:43;;;;;;;4.30;3.60;;;;;;;-6.89;93.92;101334.72;4973666;28;20091;-74
2022/12/27 03:26:45;;;;;;;6.00;5.32;;;;;;;-6.89;94.30;101312.28;4973726;28;20037;-74
2022/12/27 03:34:54;;;;;;;5.28;4.78;;;;;;;-6.82;93.68;101307.78;4973610;28;20427;-72
2022/12/27 03:40:33;;;;;;;4.85;4.45;;;;;;;-6.83;93.82;101303.50;4973025;28;20056;-73
2022/12/27 03:43:12;;;;;;;7.20;3.88;;;;;;;-6.75;94.32;101285.16;4973445;28;20049;-73
2022/12/27 03:46:33;;;;;;;5.35;4.18;;;;;;;-6.71;93.17;101300.56;4973590;28;20030;-73
2022/12/27 03:49:15;;;;;;;4.80;4.25;;;;;;;-6.78;94.52;101280.91;4973652;28;20035;-75
2022/12/27 03:51:47;;;;;;;6.85;4.82;;;;;;;-6.72;93.89;101277.28;4976219;28;20082;-74
2022/12/27 03:54:25;;;;;;;8.00;4.97;;;;;;;-6.83;93.96;101254.28;4975767;28;20042;-73
2022/12/27 03:57:12;;;;;;;7.85;4.97;;;;;;;-6.83;94.45;101262.06;4974780;28;20062;-74
2022/12/27 03:59:38;;;;;;;4.60;4.20;;;;;;;-6.80;94.40;101269.75;4973508;28;20051;-73
2022/12/27 04:02:05;;;;;;;7.37;5.07;;;;;;;-6.99;94.11;101217.56;4977196;28;20018;-74
2022/12/27 04:04:31;;;;;;;4.82;4.32;;;;;;;-6.67;94.39;101255.56;4973157;28;20467;-74
2022/12/27 04:06:56;;;;;;;11.83;4.80;;;;;;;-6.63;94.65;101254.59;4975728;28;20031;-73
2022/12/27 04:36:46;;;;;;;5.30;4.65;;;;;;;-6.67;94.76;101188.22;4976854;28;20085;-73
2022/12/27 04:39:17;;;;;;;7.90;4.70;;;;;;;-6.63;94.87;101187.25;4976117;28;20038;-74
2022/12/27 04:56:04;;;;;;;5.43;4.93;;;;;;;-6.43;94.87;101170.25;4976351;28;20034;-74
2022/12/27 04:58:30;;;;;;;6.00;5.38;;;;;;;-6.41;94.45;101165.88;4976532;28;20031;-73
2022/12/27 05:03:47;;;;;;;7.35;5.30;;;;;;;-6.47;93.76;101150.53;4976117;28;20031;-72
2022/12/27 05:06:12;;;;;;;6.80;5.63;;;;;;;-6.50;93.96;101141.09;4975771;28;20101;-73
2022/12/27 05:14:13;;;;;;;6.90;4.82;;;;;;;-6.35;94.13;101116.47;4975947;28;20033;-73
2022/12/27 05:16:41;;;;;;;5.63;4.88;;;;;;;-6.26;93.82;101116.19;4975731;28;20419;-73
2022/12/27 05:19:10;;;;;;;5.55;4.50;;;;;;;-6.37;92.80;101115.66;4975357;28;20533;-73
2022/12/27 05:21:37;;;;;;;5.30;4.60;;;;;;;-6.45;93.60;101095.16;4979581;28;20027;-74
2022/12/27 05:26:48;;;;;;;5.82;5.22;;;;;;;-6.33;94.09;101104.31;4985744;28;20141;-72
2022/12/27 05:29:13;;;;;;;6.07;5.50;;;;;;;-6.34;93.72;101098.28;4976312;28;20037;-72
2022/12/27 05:31:39;;;;;;;6.23;5.27;;;;;;;-6.30;93.33;101091.28;4976278;28;20352;-75
2022/12/27 05:34:05;;;;;;;7.33;5.97;;;;;;;-6.29;92.96;101100.75;4975741;28;20053;-75
2022/12/27 05:36:31;;;;;;;8.98;5.53;;;;;;;-6.30;93.11;101105.06;4976106;28;20030;-74
2022/12/27 05:39:21;;;;;;;7.43;5.97;;;;;;;-6.23;92.90;101086.72;4975220;28;20047;-73
2022/12/27 05:41:52;;;;;;;6.57;5.90;;;;;;;-6.32;93.16;101080.09;4958096;28;20038;-73
2022/12/27 05:44:18;;;;;;;7.33;6.10;;;;;;;-6.31;93.12;101074.03;4975144;28;20037;-75
2022/12/27 05:46:43;;;;;;;7.30;5.60;;;;;;;-6.27;92.99;101078.22;4975680;28;20475;-80
2022/12/27 05:49:09;;;;;;;6.10;5.50;;;;;;;-6.25;92.96;101086.78;4958762;28;20062;-75
2022/12/27 05:51:34;;;;;;;6.30;5.70;;;;;;;-6.23;93.14;101068.59;4976987;28;20361;-77
2022/12/27 05:54:00;;;;;;;6.30;5.67;;;;;;;-6.22;93.54;101060.75;4994932;28;20033;-77
2022/12/27 05:56:25;;;;;;;6.80;5.13;;;;;;;-6.17;93.13;101051.09;4995059;28;20083;-76
2022/12/27 05:58:52;;;;;;;9.03;5.43;;;;;;;-6.23;92.93;101032.28;4994711;28;20077;-73
2022/12/27 06:01:18;;;;;;;7.57;5.80;;;;;;;-6.15;92.72;101025.94;4995162;28;20046;-74
2022/12/27 06:03:44;;;;;;;6.00;5.07;;;;;;;-6.10;93.16;101024.06;4995249;28;20504;-74
2022/12/27 06:06:11;;;;;;;6.35;5.50;;;;;;;-6.05;92.40;101032.56;4995294;28;20073;-73
2022/12/27 06:08:38;;;;;;;6.80;5.05;;;;;;;-6.05;92.38;101027.38;4994774;28;20458;-73
2022/12/27 06:11:05;;;;;;;5.53;4.95;;;;;;;-6.06;92.75;101035.19;4995017;28;20489;-73
2022/12/27 06:13:31;;;;;;;6.32;4.25;;;;;;;-6.04;93.48;101029.06;4995172;28;20078;-73
2022/12/27 06:15:59;;;;;;;6.50;5.20;;;;;;;-5.96;93.60;101029.63;4995540;28;20561;-74
2022/12/27 06:18:24;;;;;;;7.90;6.40;;;;;;;-6.00;93.00;101017.69;4997457;28;20038;-75
2022/12/27 06:20:50;;;;;;;8.63;5.13;;;;;;;-5.97;92.93;101016.72;4995057;28;20034;-74
2022/12/27 06:23:15;;;;;;;7.17;5.37;;;;;;;-6.02;93.36;101016.03;4993812;28;20036;-74
2022/12/27 06:25:41;;;;;;;5.57;5.07;;;;;;;-6.04;93.50;101016.09;4976852;28;20030;-75
2022/12/27 06:28:06;;;;;;;5.43;4.90;;;;;;;-6.06;93.89;101007.53;4994497;28;20117;-74
2022/12/27 06:30:32;;;;;;;11.93;5.67;;;;;;;-6.07;94.00;100998.06;4992865;28;20030;-79
2022/12/27 06:32:57;;;;;;;6.93;5.50;;;;;;;-6.04;93.41;100991.91;4993871;28;20065;-74
2022/12/27 06:35:23;;;;;;;6.80;5.60;;;;;;;-6.14;93.63;100973.22;4993898;28;20375;-74
2022/12/27 06:37:48;;;;;;;5.80;5.20;;;;;;;-5.99;94.49;100998.63;4993674;28;20030;-76
2022/12/27 06:40:14;;;;;;;8.47;5.70;;;;;;;-5.98;94.20;100987.34;4976454;28;20411;-76
2022/12/27 06:42:39;;;;;;;8.13;5.50;;;;;;;-5.88;94.50;100998.22;4993674;28;20030;-74
2022/12/27 06:45:05;;;;;;;9.53;5.77;;;;;;;-5.79;93.96;101002.22;4976834;28;20375;-74
2022/12/27 06:47:34;;;;;;;7.93;5.93;;;;;;;-5.81;93.67;100996.25;4993903;28;20026;-76
2022/12/27 06:50:00;;;;;;;5.10;4.50;;;;;;;-5.82;93.35;100973.81;4976269;28;20040;-75
2022/12/27 06:52:25;;;;;;;6.03;5.43;;;;;;;-5.75;93.21;100988.28;4978204;28;20029;-76
2022/12/27 06:54:51;;;;;;;5.97;5.37;;;;;;;-5.74;93.98;100984.78;4994591;28;20528;-75
2022/12/27 06:57:16;;;;;;;7.77;5.77;;;;;;;-5.78;94.39;100980.59;4993408;28;20069;-75
2022/12/27 06:59:42;;;;;;;5.27;4.80;;;;;;;-5.89;93.85;100970.59;4967028;28;20030;-74
2022/12/27 07:02:09;;;;;;;11.47;5.43;;;;;;;-5.84;94.86;100980.81;4993862;28;20245;-75
2022/12/27 07:04:34;;;;;;;6.78;4.95;;;;;;;-5.80;94.66;100980.63;4976156;28;20117;-76
2022/12/27 07:07:00;;;;;;;8.33;5.50;;;;;;;-5.88;94.39;100958.47;4944079;28;20113;-75
2022/12/27 07:09:26;;;;;;;5.83;5.30;;;;;;;-5.71;94.86;100982.09;4968278;28;20064;-78
2022/12/27 07:11:52;;;;;;;5.77;5.17;;;;;;;-5.73;94.91;100961.38;5015479;28;20022;-77
2022/12/27 07:14:18;;;;;;;6.78;5.15;;;;;;;-5.73;94.96;100963.13;4979236;28;20124;-77
2022/12/27 07:16:44;;;;;;;8.17;5.20;;;;;;;-5.61;94.80;100960.94;4976286;28;20101;-76
2022/12/27 07:19:12;;;;;;;6.10;5.47;;;;;;;-5.56;94.93;100952.13;4977308;28;20294;-75
2022/12/27 07:21:38;;;;;;;7.20;6.07;;;;;;;-5.52;95.32;100944.16;4996820;28;20034;-76
2022/12/27 07:24:05;;;;;;;6.47;5.53;;;;;;;-5.55;94.33;100933.91;4994292;28;20038;-79
2022/12/27 07:26:32;;;;;;;6.15;5.55;;;;;;;-5.58;94.84;100918.47;4982782;28;20023;-76
2022/12/27 07:29:00;;;;;;;5.80;5.30;;;;;;;-5.51;94.78;100932.88;4976650;28;20061;-75
2022/12/27 07:31:28;;;;;;;6.22;5.63;;;;;;;-5.58;94.41;100912.41;4997511;28;20045;-75
2022/12/27 07:33:55;;;;;;;7.05;5.95;;;;;;;-5.59;94.94;100906.38;4997112;28;20423;-74
2022/12/27 07:36:24;;;;;;;7.13;5.72;;;;;;;-5.53;95.18;100903.56;4966545;28;20042;-78
2022/12/27 07:38:52;;;;;;;7.13;5.60;;;;;;;-5.42;95.02;100923.94;4960816;28;20022;-77
2022/12/27 07:41:23;;;;;;;6.40;5.45;;;;;;;-5.51;95.62;100906.09;4977753;28;20062;-74
2022/12/27 07:43:49;;;;;;;8.93;6.40;;;;;;;-5.42;95.71;100913.56;4961426;28;20034;-76
2022/12/27 07:46:19;;;;;;;10.73;5.67;;;;;;;-5.36;96.22;100908.97;4978441;28;20038;-77
2022/12/27 07:48:46;;;;;;;7.75;5.95;;;;;;;-5.39;96.96;100898.72;4996228;28;20038;-76
2022/12/27 07:51:12;;;;;;;12.75;6.80;;;;;;;-5.48;97.78;100893.88;4996892;28;20037;-75
2022/12/27 07:53:38;;;;;;;9.05;7.47;;;;;;;-5.50;98.81;100890.47;4993007;28;20034;-74
2022/12/27 07:56:10;;;;;;;7.65;5.90;;;;;;;-5.54;99.56;100888.03;4959614;28;20084;-78
2022/12/27 07:58:40;;;;;;;7.05;6.20;;;;;;;-5.49;99.61;100886.13;4975842;28;20030;-75
2022/12/27 08:01:06;;;;;;;7.18;5.78;;;;;;;-5.46;100.00;100876.50;4976207;28;20049;-77
2022/12/27 08:03:32;;;;;;;8.85;6.80;;;;;;;-5.40;100.00;100886.63;4993795;28;20499;-74
2022/12/27 08:05:58;;;;;;;6.80;6.03;;;;;;;-5.38;100.00;100871.84;4994377;28;20026;-75
2022/12/27 08:08:31;;;;;;;9.70;6.63;;;;;;;-5.28;100.00;100884.47;4975718;28;20462;-74
2022/12/27 08:10:56;;;;;;;9.90;6.70;;;;;;;-5.30;100.00;100877.56;4975273;28;20030;-75
2022/12/27 08:13:22;;;;;;;8.10;6.50;;;;;;;-5.26;99.72;100864.47;4993027;28;20027;-75
2022/12/27 08:15:50;;;;;;;9.07;7.07;;;;;;;-5.22;99.79;100861.69;4992656;28;20065;-76
2022/12/27 08:18:19;;;;;;;11.40;7.15;;;;;;;-5.14;99.55;100871.81;4992464;28;20042;-76
2022/12/27 08:20:44;;;;;;;8.60;6.25;;;;;;;-5.16;98.83;100863.22;4991857;28;20080;-75
2022/12/27 08:23:13;;;;;;;10.77;6.90;;;;;;;-5.15;98.65;100844.16;4975176;28;20101;-75
2022/12/27 08:25:39;;;;;;;6.78;5.72;;;;;;;-5.11;98.56;100853.50;4975090;28;20049;-74
2022/12/27 08:28:09;;;;;;;7.70;5.90;;;;;;;-5.12;98.37;100828.44;4989257;28;20031;-75
2022/12/27 08:30:34;;;;;;;7.20;6.20;;;;;;;-5.17;98.60;100823.44;4977234;28;20019;-75
2022/12/27 08:33:01;;;;;;;10.00;7.37;;;;;;;-5.14;98.81;100819.88;4997121;28;20026;-74
2022/12/27 08:35:27;;;;;;;8.15;6.07;;;;;;;-5.11;98.55;100824.94;4959138;28;20121;-76
2022/12/27 08:37:53;;;;;;;8.87;6.70;;;;;;;-5.19;99.11;100801.88;4992230;28;20125;-74
2022/12/27 08:40:19;;;;;;;12.33;7.03;;;;;;;-5.13;98.59;100806.81;4961159;28;20057;-75
2022/12/27 08:42:46;;;;;;;8.40;6.18;;;;;;;-5.11;99.09;100817.16;4974735;28;20030;-75
2022/12/27 08:45:13;;;;;;;6.82;6.13;;;;;;;-5.11;98.55;100815.41;4992214;28;20430;-74
2022/12/27 08:47:39;;;;;;;6.57;5.40;;;;;;;-5.02;99.34;100819.38;4992874;28;20026;-75
2022/12/27 08:50:06;;;;;;;7.13;6.30;;;;;;;-4.99;99.51;100824.44;4974583;28;20038;-75
2022/12/27 08:52:32;;;;;;;8.82;7.03;;;;;;;-4.97;99.47;100812.22;4958453;28;20026;-75
2022/12/27 08:54:58;;;;;;;7.28;6.57;;;;;;;-4.88;99.72;100801.47;4996439;28;20034;-75
2022/12/27 08:57:24;;;;;;;8.43;6.43;;;;;;;-4.93;100.00;100810.34;4961861;28;20517;-75
2022/12/27 08:59:49;;;;;;;6.87;6.10;;;;;;;-4.86;100.00;100798.81;4995089;28;20065;-74
2022/12/27 09:02:15;;;;;;;7.53;6.43;;;;;;;-4.83;100.00;100809.91;5001516;28;20034;-75
2022/12/27 09:04:40;;;;;;;9.33;7.60;;;;;;;-4.79;99.68;100797.63;5000699;28;20069;-74
2022/12/27 09:07:06;;;;;;;8.37;6.80;;;;;;;-4.83;99.49;100801.28;4995092;28;20482;-75
2022/12/27 09:09:32;;;;;;;11.07;7.03;;;;;;;-4.83;99.71;100789.13;4995957;28;20034;-74
2022/12/27 09:11:57;;;;;;;8.00;6.27;;;;;;;-4.71;99.64;100792.94;4995586;28;20096;-76
2022/12/27 09:14:23;;;;;;;10.10;6.57;;;;;;;-4.65;98.60;100791.84;4995471;28;20026;-75
2022/12/27 09:16:50;;;;;;;10.00;7.07;;;;;;;-4.74;98.87;100780.94;4977309;28;20070;-77
2022/12/27 09:19:15;;;;;;;8.30;7.20;;;;;;;-4.70;99.03;100790.28;4978027;28;20403;-74
2022/12/27 09:21:42;;;;;;;11.33;7.60;;;;;;;-4.87;100.00;100752.97;4961317;28;20029;-75
2022/12/27 09:24:12;;;;;;;13.23;7.80;;;;;;;-4.80;100.00;100752.63;4977120;28;20046;-74
2022/12/27 09:26:38;;;;;;;10.35;6.93;;;;;;;-4.61;100.00;100778.69;4994423;28;20486;-75
2022/12/27 09:29:05;;;;;;;13.33;8.57;;;;;;;-4.76;100.00;100753.34;4977214;28;20034;-75
2022/12/27 09:31:31;;;;;;;12.15;7.90;;;;;;;-4.71;100.00;100765.22;4977273;28;20109;-74
2022/12/27 09:33:57;;;;;;;12.13;8.57;;;;;;;-4.74;100.00;100767.94;4995109;28;20054;-75
2022/12/27 09:36:28;;;;;;;10.27;8.32;;;;;;;-4.72;100.00;100742.75;4994620;28;20052;-75
2022/12/27 09:38:55;;;;;;;13.68;8.65;;;;;;;-4.61;100.00;100751.84;4994379;28;20066;-76
2022/12/27 09:41:43;;;;;;;35.35;9.05;;;;;;;-4.54;100.00;100758.47;4994808;28;20054;-75
2022/12/27 09:44:28;;;;;;;11.05;8.48;;;;;;;-4.61;100.00;100746.66;4994576;28;20501;-74
2022/12/27 09:47:01;;;;;;;10.68;8.30;;;;;;;-4.53;100.00;100755.78;4994744;28;20037;-74
2022/12/27 09:49:34;;;;;;;13.10;8.55;;;;;;;-4.50;100.00;100747.84;4994502;28;20359;-75
2022/12/27 09:52:12;;;;;;;9.82;8.30;;;;;;;-4.42;100.00;100750.09;4994602;28;20033;-74
2022/12/27 09:54:44;;;;;;;11.68;8.95;;;;;;;-4.44;100.00;100744.13;4994903;28;20088;-76
2022/12/27 09:57:35;;;;;;;9.82;8.07;;;;;;;-4.42;100.00;100735.34;4994645;28;20069;-75
2022/12/27 10:00:05;;;;;;;11.30;8.88;;;;;;;-4.40;100.00;100730.09;4994735;28;20189;-74
2022/12/27 10:02:33;;;;;;;13.55;9.23;;;;;;;-4.46;100.00;100727.75;4994618;28;20077;-75
2022/12/27 10:04:59;;;;;;;14.80;10.23;;;;;;;-4.53;100.00;100723.75;4994656;28;20121;-74
2022/12/27 10:08:02;;;;;;;10.63;9.40;;;;;;;-4.52;100.00;100741.03;4996540;28;20126;-74
2022/12/27 10:10:51;;;;;;;11.70;9.73;;;;;;;-4.54;100.00;100727.28;4996371;28;20042;-75
2022/12/27 10:13:36;;;;;;;13.48;9.70;;;;;;;-4.57;100.00;100719.63;4996366;28;20466;-73
2022/12/27 10:16:13;;;;;;;12.63;10.30;;;;;;;-4.54;100.00;100722.06;4994582;28;20034;-76
2022/12/27 10:19:01;;;;;;;14.27;10.25;;;;;;;-4.50;100.00;100721.88;4995343;28;20038;-74
2022/12/27 10:21:28;;;;;;;12.50;10.02;;;;;;;-4.47;100.00;100710.47;4995601;28;20069;-74
2022/12/27 10:24:06;;;;;;;17.33;11.13;;;;;;;-4.56;100.00;100708.31;4994140;28;20300;-75
2022/12/27 10:26:32;;;;;;;12.95;10.35;;;;;;;-4.58;100.00;100697.97;4994360;28;20045;-75
2022/12/27 10:29:10;;;;;;;13.55;10.35;;;;;;;-4.50;100.00;100697.63;4963279;28;20030;-74
2022/12/27 10:31:42;;;;;;;13.52;9.65;;;;;;;-4.45;100.00;100695.66;4982310;28;20036;-75
2022/12/27 10:34:12;;;;;;;11.20;8.65;;;;;;;-4.41;100.00;100699.81;4989106;28;20045;-73
2022/12/27 10:36:39;;;;;;;10.50;9.18;;;;;;;-4.38;100.00;100702.25;4981158;28;20042;-73
2022/12/27 10:39:19;;;;;;;11.82;8.30;;;;;;;-4.39;100.00;100684.97;4978659;28;20046;-74
2022/12/27 10:42:23;;;;;;;11.38;9.02;;;;;;;-4.26;100.00;100691.31;4994946;28;20046;-75
2022/12/27 10:44:48;;;;;;;11.98;8.85;;;;;;;-4.25;100.00;100690.41;4961909;28;20050;-74
2022/12/27 10:47:18;;;;;;;13.37;10.57;;;;;;;-4.31;100.00;100677.69;4995742;28;20080;-74
2022/12/27 10:50:10;;;;;;;12.05;10.20;;;;;;;-4.25;100.00;100685.22;4998585;28;20030;-75
2022/12/27 10:52:36;;;;;;;13.68;9.68;;;;;;;-4.37;99.67;100647.59;4978911;28;20038;-75
2022/12/27 10:55:02;;;;;;;13.40;9.40;;;;;;;-4.26;99.46;100660.13;4996290;28;20037;-75
2022/12/27 10:57:33;;;;;;;13.10;8.48;;;;;;;-4.21;99.76;100671.16;4994511;28;20030;-74
2022/12/27 11:00:19;;;;;;;12.35;7.70;;;;;;;-4.15;100.00;100664.81;4993342;28;20057;-74
2022/12/27 11:02:56;;;;;;;12.57;8.40;;;;;;;-4.22;99.64;100629.63;4995151;28;20038;-75
2022/12/27 11:05:25;;;;;;;14.68;9.98;;;;;;;-4.06;100.00;100662.59;4994513;28;20086;-75
2022/12/27 11:07:51;;;;;;;10.10;8.60;;;;;;;-4.04;99.68;100643.53;4977370;28;20035;-75
2022/12/27 11:10:25;;;;;;;12.00;8.88;;;;;;;-4.00;99.60;100650.25;4994395;28;20057;-76
2022/12/27 11:12:55;;;;;;;18.55;10.50;;;;;;;-4.05;100.00;100653.06;4994507;28;20038;-75
2022/12/27 11:15:21;;;;;;;13.75;8.25;;;;;;;-4.08;100.00;100648.84;4993937;28;20078;-74
2022/12/27 11:17:50;;;;;;;13.43;9.40;;;;;;;-4.12;100.00;100642.09;4993917;28;20041;-76
2022/12/27 11:20:26;;;;;;;12.70;9.25;;;;;;;-4.08;100.00;100643.63;4976459;28;20039;-74
2022/12/27 11:23:12;;;;;;;13.82;9.63;;;;;;;-4.01;100.00;100648.56;4993031;28;20041;-74
2022/12/27 11:25:56;;;;;;;12.82;9.48;;;;;;;-4.03;100.00;100645.19;4992854;28;20042;-74
2022/12/27 11:28:30;;;;;;;13.13;9.75;;;;;;;-4.04;100.00;100628.75;4994155;28;20037;-74
2022/12/27 11:31:00;;;;;;;13.85;9.68;;;;;;;-4.14;100.00;100622.28;4996403;28;20121;-74
2022/12/27 11:33:31;;;;;;;16.55;10.55;;;;;;;-4.16;100.00;100627.56;4993155;28;20026;-74
2022/12/27 11:35:59;;;;;;;12.45;8.98;;;;;;;-4.16;100.00;100624.97;4992363;28;20471;-74
2022/12/27 11:38:28;;;;;;;13.63;10.23;;;;;;;-4.13;100.00;100629.16;4992778;28;20132;-75
2022/12/27 11:41:06;;;;;;;15.00;10.85;;;;;;;-4.20;100.00;100618.22;4992714;28;20074;-75
2022/12/27 11:43:52;;;;;;;17.15;11.15;;;;;;;-4.19;100.00;100625.09;4993101;28;20038;-74
2022/12/27 11:46:29;;;;;;;13.35;10.05;;;;;;;-4.13;100.00;100623.97;4992740;28;20080;-74
2022/12/27 11:48:57;;;;;;;15.80;10.40;;;;;;;-4.17;100.00;100628.47;4992824;28;20034;-74
2022/12/27 11:51:41;;;;;;;16.02;9.57;;;;;;;-4.13;100.00;100624.81;4992826;28;20166;-72
2022/12/27 11:54:09;;;;;;;13.90;10.05;;;;;;;-4.10;100.00;100629.88;4992767;28;20069;-74
2022/12/27 11:56:39;;;;;;;13.32;10.02;;;;;;;-4.35;100.00;100577.31;4992659;28;20030;-74
2022/12/27 11:59:31;;;;;;;14.02;10.10;;;;;;;-4.12;100.00;100613.50;4992806;28;20030;-75
2022/12/27 12:02:25;;;;;;;18.85;12.25;;;;;;;-4.05;100.00;100621.84;4992731;28;20027;-74
2022/12/27 12:05:21;;;;;;;19.35;10.80;;;;;;;-4.06;100.00;100615.78;4991976;28;20350;-74
2022/12/27 12:08:25;;;;;;;17.30;10.13;;;;;;;-4.11;100.00;100620.38;4992772;28;20057;-74
2022/12/27 12:11:21;;;;;;;18.58;10.23;;;;;;;-4.14;100.00;100617.09;4992461;28;20035;-75
2022/12/27 12:14:05;;;;;;;15.63;9.93;;;;;;;-4.19;100.00;100608.66;4992649;28;20022;-74
2022/12/27 12:16:41;;;;;;;15.75;11.18;;;;;;;-4.15;100.00;100603.25;4992313;28;20574;-74
2022/12/27 12:19:37;;;;;;;13.20;9.90;;;;;;;-4.10;100.00;100603.84;4992296;28;20076;-74
2022/12/27 12:22:46;;;;;;;13.75;9.43;;;;;;;-4.01;100.00;100596.53;4992491;28;20049;-74
2022/12/27 12:25:50;;;;;;;13.05;9.82;;;;;;;-4.00;100.00;100599.06;4992210;28;20409;-73
2022/12/27 12:28:46;;;;;;;14.50;9.45;;;;;;;-3.97;100.00;100605.88;4934524;29;20122;-74
2022/12/27 12:31:57;;;;;;;16.73;10.77;;;;;;;-3.95;100.00;100596.25;4942476;29;20031;-72
2022/12/27 12:34:46;;;;;;;16.50;9.90;;;;;;;-3.96;100.00;100603.22;4967468;28;20085;-73
2022/12/27 12:37:21;;;;;;;15.63;9.63;;;;;;;-3.92;100.00;100599.53;4995845;28;20030;-75
2022/12/27 12:40:03;;;;;;;11.57;8.45;;;;;;;-3.94;100.00;100587.53;4996081;28;20057;-76
2022/12/27 12:43:01;;;;;;;12.93;8.95;;;;;;;-3.89;100.00;100591.56;4995789;28;20038;-75
2022/12/27 12:45:29;;;;;;;13.60;9.60;;;;;;;-3.93;100.00;100599.59;4996696;28;20034;-75
2022/12/27 12:48:22;;;;;;;10.65;8.70;;;;;;;-3.95;100.00;100601.44;4996237;28;20478;-75
2022/12/27 12:51:15;;;;;;;8.80;7.30;;;;;;;-3.96;100.00;100594.56;4995329;28;20034;-75
2022/12/27 12:54:01;;;;;;;13.45;8.43;;;;;;;-3.87;100.00;100596.69;4995708;28;20029;-75
2022/12/27 12:56:40;;;;;;;11.07;8.43;;;;;;;-3.86;100.00;100591.41;4995721;28;20029;-74
2022/12/27 12:59:26;;;;;;;11.52;9.38;;;;;;;-3.83;100.00;100575.66;4995365;28;20026;-73
2022/12/27 13:01:58;;;;;;;11.98;8.77;;;;;;;-3.81;100.00;100575.56;4978254;28;20084;-74
2022/12/27 13:05:11;;;;;;;14.77;9.18;;;;;;;-3.84;100.00;100573.97;4995724;28;20422;-74
2022/12/27 13:07:58;;;;;;;12.20;9.02;;;;;;;-3.81;100.00;100576.41;4978200;28;20478;-73
2022/12/27 13:10:43;;;;;;;16.05;8.50;;;;;;;-3.74;100.00;100569.19;4978258;28;20022;-75
2022/12/27 13:13:31;;;;;;;9.90;8.75;;;;;;;-3.68;99.59;100574.06;4996046;28;20626;-74
2022/12/27 13:16:33;;;;;;;14.88;9.43;;;;;;;-3.71;99.61;100581.19;4995474;28;20502;-74